Pagina principale
METAR-TAF:

METAR-TAF

Aeroporti :

Neuquén, Argentina

latitudine: 38-57S, longitudine: 068-08W, altezza: 270 m

Osservazione

Il bollettino è stato emesso 54 minuti fa, alle 14:00 UTC
Vento 8 kt da est
Temperature 17°C
Umidità 39%
Pressione 1025 hPa
Visibilità 10 km o più
nessuna nube inferiore a 1500 m e nessun cumulonembo

METAR: SAZN 261400Z 09008KT CAVOK 17/03 Q1025

Ora: 11:54 (14:54 UTC)

Previsione

Il bollettino è stato emesso 3 ore e 54 minuti fa, alle 11:00 UTC
Previsione valida dal 26 alle 12 UTC al 27 alle 12 UTC
Vento 3 kt da sud-est
Visibilità 10 km o più
nessuna nube inferiore a 1500 m e nessun cumulonembo
Evoluzione graduale
dal 26 alle 15 UTC al 26 alle 16 UTC
Vento 15 kt da est/nord-est
Evoluzione graduale
dal 26 alle 23 UTC al 27 alle 01 UTC
Vento 10 kt da est

TAF: SAZN 261100Z 2612/2712 14003KT CAVOK TX25/2619Z TN09/2710Z BECMG 2615/2616 07015KT BECMG 2623/2701 09010KT

Osservazioni e previsioni meteorologiche di più di 4000 aeroporti (messaggi METAR e TAF).

Le stazioni disponibili sono rappresentate dai dischi gialli e rossi sulla carta.

Puntare il mouse per vedere il nome della stazione.

Clicca sopra per visualizzare le osservazioni e previsioni meteorologiche.

Per cambiare la mappa : fare clic sui pulsanti verdi con una croce nera per ingrandire, il pulsante verde con un trattino per diminuire, o sulla freccia verde per le mappe adiacenti.


METAR-TAF: